createdAt,value
2019-02-10T00:01:55.214Z,8.40
2019-02-10T00:04:27.947Z,8.40
2019-02-10T00:07:00.887Z,8.40
2019-02-10T00:09:34.266Z,8.40
2019-02-10T00:12:06.448Z,8.40
2019-02-10T00:14:39.247Z,8.40
2019-02-10T00:17:11.471Z,8.40
2019-02-10T00:19:43.888Z,8.40
2019-02-10T00:22:16.780Z,8.40
2019-02-10T00:24:50.028Z,8.50
2019-02-10T00:27:23.127Z,8.50
2019-02-10T00:29:56.347Z,8.50
2019-02-10T00:32:28.749Z,8.60
2019-02-10T00:35:01.449Z,8.60
2019-02-10T00:37:34.150Z,8.50
2019-02-10T00:40:06.431Z,8.60
2019-02-10T00:42:39.038Z,8.60
2019-02-10T00:45:11.367Z,8.50
2019-02-10T00:47:43.428Z,8.50
2019-02-10T00:50:16.387Z,8.50
2019-02-10T00:52:48.847Z,8.40
2019-02-10T00:55:20.918Z,8.50
2019-02-10T00:57:53.247Z,8.50
2019-02-10T01:00:26.047Z,8.60
2019-02-10T01:02:58.347Z,8.60
2019-02-10T01:05:30.689Z,8.60
2019-02-10T01:08:04.229Z,8.60
2019-02-10T01:10:36.489Z,8.60
2019-02-10T01:13:08.687Z,8.60
2019-02-10T01:15:41.526Z,8.60
2019-02-10T01:18:13.309Z,8.60
2019-02-10T01:20:46.307Z,8.60
2019-02-10T01:23:18.487Z,8.60
2019-02-10T01:25:50.646Z,8.60
2019-02-10T01:28:23.287Z,8.60
2019-02-10T01:30:58.947Z,8.60
2019-02-10T01:33:31.367Z,8.70
2019-02-10T01:36:03.668Z,8.70
2019-02-10T01:38:36.488Z,8.60
2019-02-10T01:41:09.087Z,8.70
2019-02-10T01:43:41.127Z,8.70
2019-02-10T01:46:13.989Z,8.70
2019-02-10T01:48:46.287Z,8.70
2019-02-10T01:51:19.128Z,8.70
2019-02-10T01:53:52.270Z,8.70
2019-02-10T01:56:25.067Z,8.80
2019-02-10T01:58:57.608Z,8.70
2019-02-10T02:01:30.567Z,8.80
2019-02-10T02:04:03.048Z,8.80
2019-02-10T02:06:36.127Z,8.70
2019-02-10T02:09:11.546Z,8.80
2019-02-10T02:11:44.347Z,8.90
2019-02-10T02:14:17.207Z,8.90
2019-02-10T02:16:49.169Z,8.90
2019-02-10T02:19:21.770Z,9.00
2019-02-10T02:21:54.666Z,9.10
2019-02-10T02:24:26.527Z,9.10
2019-02-10T02:26:59.307Z,9.10
2019-02-10T02:29:31.607Z,9.00
2019-02-10T02:32:04.826Z,8.90
2019-02-10T02:34:37.548Z,8.90
2019-02-10T02:37:09.767Z,8.90
2019-02-10T02:39:42.766Z,8.90
2019-02-10T02:42:16.053Z,8.80
2019-02-10T02:44:49.143Z,8.90
2019-02-10T02:47:21.526Z,8.80
2019-02-10T02:49:53.807Z,8.60
2019-02-10T02:52:26.846Z,8.30
2019-02-10T02:54:58.846Z,8.00
2019-02-10T02:57:31.170Z,7.70
2019-02-10T03:00:04.347Z,7.60
2019-02-10T03:02:37.206Z,7.50
2019-02-10T03:05:10.129Z,7.60
2019-02-10T03:07:42.727Z,7.80
2019-02-10T03:10:15.667Z,7.90
2019-02-10T03:12:47.466Z,8.00
2019-02-10T03:15:20.290Z,8.00
2019-02-10T03:17:52.650Z,8.10
2019-02-10T03:20:24.929Z,8.10
2019-02-10T03:22:58.208Z,8.10
2019-02-10T03:25:31.169Z,8.20
2019-02-10T03:28:03.986Z,8.20
2019-02-10T03:30:35.411Z,8.20
2019-02-10T03:33:08.869Z,8.30
2019-02-10T03:35:41.206Z,8.40
2019-02-10T03:38:14.287Z,8.40
2019-02-10T03:40:46.387Z,8.40
2019-02-10T03:43:19.209Z,8.40
2019-02-10T03:45:51.207Z,8.50
2019-02-10T03:48:24.130Z,8.50
2019-02-10T03:50:56.406Z,8.50
2019-02-10T03:53:29.487Z,8.50
2019-02-10T03:56:02.349Z,8.40
2019-02-10T03:58:36.109Z,8.20
2019-02-10T04:01:08.773Z,8.10
2019-02-10T04:03:41.628Z,8.00
2019-02-10T04:06:14.130Z,8.00
2019-02-10T04:08:47.128Z,8.00
2019-02-10T04:11:20.607Z,8.00
2019-02-10T04:13:53.948Z,8.10
2019-02-10T04:16:26.787Z,8.10
2019-02-10T04:18:59.026Z,8.10
2019-02-10T04:21:31.707Z,8.20
2019-02-10T04:24:04.507Z,8.20
2019-02-10T04:26:37.326Z,8.20
2019-02-10T04:29:09.310Z,8.20
2019-02-10T04:31:42.727Z,8.20
2019-02-10T04:34:16.186Z,8.20
2019-02-10T04:36:49.148Z,8.10
2019-02-10T04:39:21.786Z,7.70
2019-02-10T04:41:53.866Z,7.50
2019-02-10T04:44:26.431Z,7.30
2019-02-10T04:46:58.646Z,7.20
2019-02-10T04:49:30.988Z,7.10
2019-02-10T04:52:03.647Z,7.10
2019-02-10T04:54:35.709Z,7.10
2019-02-10T04:57:07.989Z,7.10
2019-02-10T04:59:40.567Z,7.20
2019-02-10T05:02:12.966Z,7.20
2019-02-10T05:04:45.767Z,7.20
2019-02-10T05:07:18.447Z,7.10
2019-02-10T05:09:51.167Z,7.10
2019-02-10T05:12:24.207Z,7.00
2019-02-10T05:14:56.927Z,7.00
2019-02-10T05:17:29.929Z,6.90
2019-02-10T05:20:02.509Z,6.80
2019-02-10T05:22:35.629Z,6.70
2019-02-10T05:25:08.526Z,6.70
2019-02-10T05:27:41.267Z,6.70
2019-02-10T05:30:13.849Z,6.60
2019-02-10T05:32:46.248Z,6.60
2019-02-10T05:35:19.188Z,6.70
2019-02-10T05:37:51.807Z,6.70
2019-02-10T05:40:24.248Z,6.70
2019-02-10T05:42:56.346Z,6.70
2019-02-10T05:45:29.747Z,6.70
2019-02-10T05:48:02.427Z,6.70
2019-02-10T05:50:34.547Z,6.70
2019-02-10T05:53:07.088Z,6.70
2019-02-10T05:55:39.427Z,6.60
2019-02-10T05:58:11.887Z,6.60
2019-02-10T06:00:44.770Z,6.50
2019-02-10T06:03:17.589Z,6.50
2019-02-10T06:05:50.366Z,6.50
2019-02-10T06:08:22.967Z,6.40
2019-02-10T06:10:56.127Z,6.40
2019-02-10T06:13:29.247Z,6.40
2019-02-10T06:16:01.567Z,6.40
2019-02-10T06:18:34.412Z,6.50
2019-02-10T06:21:06.647Z,6.40
2019-02-10T06:23:38.867Z,6.30
2019-02-10T06:26:11.448Z,6.30
2019-02-10T06:28:43.808Z,6.40
2019-02-10T06:31:16.967Z,6.50
2019-02-10T06:33:48.888Z,6.50
2019-02-10T06:36:21.768Z,6.50
2019-02-10T06:38:54.987Z,6.60
2019-02-10T06:41:28.507Z,6.50
2019-02-10T06:44:01.366Z,6.40
2019-02-10T06:46:33.747Z,6.50
2019-02-10T06:49:06.506Z,6.50
2019-02-10T06:51:39.127Z,6.50
2019-02-10T06:54:11.251Z,6.40
2019-02-10T06:56:44.908Z,6.40
2019-02-10T06:59:40.926Z,6.40
2019-02-10T07:02:30.903Z,6.50
2019-02-10T07:05:03.730Z,6.50
2019-02-10T07:07:36.614Z,6.50
2019-02-10T07:10:09.666Z,6.40
2019-02-10T07:12:52.150Z,6.40
2019-02-10T07:16:02.667Z,6.50
2019-02-10T07:19:09.067Z,6.50
2019-02-10T07:21:44.609Z,6.60
2019-02-10T07:24:37.487Z,6.60
2019-02-10T07:27:21.327Z,6.70
2019-02-10T07:30:36.927Z,6.70
2019-02-10T07:33:46.868Z,6.70
2019-02-10T07:37:00.668Z,6.80
2019-02-10T07:39:54.007Z,6.80
2019-02-10T07:42:51.447Z,6.80
2019-02-10T07:46:10.307Z,6.90
2019-02-10T07:49:31.768Z,7.00
2019-02-10T07:52:19.908Z,7.10
2019-02-10T07:55:35.588Z,7.00
2019-02-10T07:58:34.770Z,7.00
2019-02-10T08:01:20.129Z,7.10
2019-02-10T08:04:29.067Z,7.00
2019-02-10T08:07:30.346Z,7.10
2019-02-10T08:10:16.686Z,7.20
2019-02-10T08:13:25.668Z,7.20
2019-02-10T08:17:02.230Z,7.20
2019-02-10T08:19:59.907Z,7.20
2019-02-10T08:23:04.248Z,7.20
2019-02-10T08:26:20.829Z,7.30
2019-02-10T08:29:28.739Z,7.50
2019-02-10T08:32:38.686Z,7.60
2019-02-10T08:35:53.246Z,7.70
2019-02-10T08:39:03.266Z,7.70
2019-02-10T08:41:44.727Z,7.80
2019-02-10T08:45:18.006Z,7.80
2019-02-10T08:48:39.986Z,7.80
2019-02-10T08:51:57.094Z,8.00
2019-02-10T08:54:29.347Z,8.10
2019-02-10T08:57:01.769Z,8.20
2019-02-10T08:59:34.107Z,8.40
2019-02-10T09:02:06.367Z,8.40
2019-02-10T09:04:39.608Z,8.60
2019-02-10T09:07:12.306Z,8.60
2019-02-10T09:09:44.607Z,8.60
2019-02-10T09:12:17.246Z,8.60
2019-02-10T09:14:50.666Z,8.60
2019-02-10T09:17:23.166Z,8.60
2019-02-10T09:19:55.306Z,8.60
2019-02-10T09:22:28.289Z,8.60
2019-02-10T09:25:01.627Z,8.70
2019-02-10T09:27:33.787Z,8.80
2019-02-10T09:30:07.348Z,8.80
2019-02-10T09:32:40.287Z,8.90
2019-02-10T09:35:13.787Z,8.90
2019-02-10T09:37:46.767Z,9.00
2019-02-10T09:40:19.927Z,9.00
2019-02-10T09:42:52.327Z,9.00
2019-02-10T09:45:25.186Z,9.10
2019-02-10T09:47:57.646Z,9.30
2019-02-10T09:50:29.810Z,9.40
2019-02-10T09:53:02.349Z,9.40
2019-02-10T09:55:35.126Z,9.50
2019-02-10T09:58:07.168Z,9.40
2019-02-10T10:00:40.047Z,9.30
2019-02-10T10:03:13.046Z,9.10
2019-02-10T10:05:46.447Z,9.10
2019-02-10T10:08:18.148Z,9.10
2019-02-10T10:10:51.108Z,9.20
2019-02-10T10:13:23.928Z,9.30
2019-02-10T10:15:56.346Z,9.30
2019-02-10T10:18:28.806Z,9.30
2019-02-10T10:21:01.386Z,9.50
2019-02-10T10:23:33.628Z,9.50
2019-02-10T10:26:06.188Z,9.60
2019-02-10T10:28:39.627Z,9.70
2019-02-10T10:31:13.469Z,9.90
2019-02-10T10:33:46.867Z,10.10
2019-02-10T10:36:20.607Z,10.20
2019-02-10T10:38:54.166Z,10.50
2019-02-10T10:41:27.402Z,10.80
2019-02-10T10:43:59.906Z,10.80
2019-02-10T10:46:32.923Z,10.70
2019-02-10T10:49:05.365Z,10.80
2019-02-10T10:51:36.922Z,10.70
2019-02-10T10:54:10.323Z,10.70
2019-02-10T10:56:43.351Z,10.80
2019-02-10T10:59:16.128Z,10.70
2019-02-10T11:01:47.871Z,10.90
2019-02-10T11:04:20.313Z,11.10
2019-02-10T11:06:52.430Z,11.30
2019-02-10T11:09:25.592Z,11.50
2019-02-10T11:11:58.792Z,11.50
2019-02-10T11:14:31.931Z,11.70
2019-02-10T11:17:04.490Z,11.70
2019-02-10T11:19:36.730Z,11.80
2019-02-10T11:22:09.591Z,11.70
2019-02-10T11:24:42.752Z,11.60
2019-02-10T11:27:15.551Z,11.60
2019-02-10T11:29:47.691Z,11.60
2019-02-10T11:32:19.950Z,11.60
2019-02-10T11:34:53.150Z,11.60
2019-02-10T11:37:26.872Z,11.60
2019-02-10T11:39:59.333Z,11.60
2019-02-10T11:42:31.312Z,11.50
2019-02-10T11:45:03.371Z,11.60
2019-02-10T11:47:35.830Z,11.80
2019-02-10T11:50:08.511Z,12.20
2019-02-10T11:52:40.311Z,12.60
2019-02-10T11:55:13.419Z,12.90
2019-02-10T11:57:46.612Z,13.20
2019-02-10T12:00:19.630Z,13.60
2019-02-10T12:02:52.172Z,14.10
2019-02-10T12:05:24.791Z,14.60
2019-02-10T12:07:57.772Z,14.90
2019-02-10T12:10:30.811Z,15.20
2019-02-10T12:13:03.491Z,15.70
2019-02-10T12:15:35.832Z,16.10
2019-02-10T12:18:08.691Z,16.40
2019-02-10T12:20:41.991Z,16.70
2019-02-10T12:23:14.291Z,16.90
2019-02-10T12:25:46.895Z,17.00
2019-02-10T12:28:20.011Z,16.90
2019-02-10T12:30:51.550Z,17.00
2019-02-10T12:33:23.851Z,16.80
2019-02-10T12:35:58.430Z,16.60
2019-02-10T12:38:31.074Z,16.40
2019-02-10T12:41:03.554Z,16.10
2019-02-10T12:43:35.871Z,16.00
2019-02-10T12:46:08.490Z,15.80
2019-02-10T12:48:40.871Z,15.80
2019-02-10T12:51:13.735Z,15.80
2019-02-10T12:53:46.736Z,15.70
2019-02-10T12:56:20.151Z,15.60
2019-02-10T12:58:52.953Z,15.50
2019-02-10T13:01:25.110Z,15.50
2019-02-10T13:03:58.191Z,15.30
2019-02-10T13:06:31.425Z,15.20
2019-02-10T13:09:05.411Z,15.00
2019-02-10T13:11:37.812Z,14.90
2019-02-10T13:14:13.271Z,14.90
2019-02-10T13:16:47.232Z,14.80
2019-02-10T13:19:19.712Z,14.80
2019-02-10T13:21:52.311Z,14.70
2019-02-10T13:24:24.816Z,14.60
2019-02-10T13:26:57.950Z,14.60
2019-02-10T13:29:30.473Z,14.50
2019-02-10T13:32:03.270Z,14.50
2019-02-10T13:34:37.111Z,14.50
2019-02-10T13:37:10.071Z,14.50
2019-02-10T13:39:42.511Z,14.40
2019-02-10T13:42:15.453Z,14.40
2019-02-10T13:44:47.650Z,14.30
2019-02-10T13:47:19.971Z,14.30
2019-02-10T13:49:52.992Z,14.20
2019-02-10T13:52:34.751Z,14.20
2019-02-10T13:55:06.992Z,14.20
2019-02-10T13:57:40.772Z,14.20
2019-02-10T14:00:17.712Z,14.20
2019-02-10T14:02:50.493Z,14.20
2019-02-10T14:05:23.290Z,14.20
2019-02-10T14:07:55.572Z,14.20
2019-02-10T14:10:28.237Z,14.10
2019-02-10T14:13:03.172Z,14.00
2019-02-10T14:15:35.573Z,13.90
2019-02-10T14:18:08.657Z,13.80
2019-02-10T14:20:41.554Z,13.80
2019-02-10T14:23:13.711Z,13.70
2019-02-10T14:25:46.471Z,13.60
2019-02-10T14:28:19.293Z,13.60
2019-02-10T14:30:51.552Z,13.50
2019-02-10T14:33:23.511Z,13.40
2019-02-10T14:35:56.753Z,13.30
2019-02-10T14:38:36.237Z,13.30
2019-02-10T14:41:04.511Z,13.10
2019-02-10T14:43:36.635Z,13.00
2019-02-10T14:46:09.391Z,13.00
2019-02-10T14:48:42.430Z,13.00
2019-02-10T14:51:14.730Z,13.00
2019-02-10T14:53:47.972Z,13.00
2019-02-10T14:56:20.892Z,13.00
2019-02-10T14:58:54.050Z,12.90
2019-02-10T15:01:26.112Z,12.90
2019-02-10T15:03:58.791Z,12.80
2019-02-10T15:06:31.832Z,12.80
2019-02-10T15:09:06.232Z,12.60
2019-02-10T15:11:39.011Z,12.40
2019-02-10T15:14:12.073Z,12.30
2019-02-10T15:16:44.901Z,12.20
2019-02-10T15:19:18.191Z,12.10
2019-02-10T15:21:50.591Z,12.10
2019-02-10T15:24:23.412Z,12.10
2019-02-10T15:26:55.330Z,12.10
2019-02-10T15:29:27.741Z,12.10
2019-02-10T15:32:00.894Z,12.00
2019-02-10T15:34:32.970Z,11.90
2019-02-10T15:37:06.210Z,11.90
2019-02-10T15:39:38.632Z,11.90
2019-02-10T15:42:11.433Z,11.80
2019-02-10T15:44:45.663Z,11.80
2019-02-10T15:47:18.371Z,11.80
2019-02-10T15:49:51.992Z,11.90
2019-02-10T15:52:24.892Z,11.90
2019-02-10T15:54:58.451Z,12.00
2019-02-10T15:57:30.991Z,12.00
2019-02-10T16:00:02.971Z,12.00
2019-02-10T16:02:36.833Z,12.00
2019-02-10T16:05:10.030Z,12.00
2019-02-10T16:07:42.271Z,12.00
2019-02-10T16:10:14.691Z,12.00
2019-02-10T16:12:47.779Z,12.00
2019-02-10T16:15:19.850Z,11.90
2019-02-10T16:17:52.551Z,11.80
2019-02-10T16:20:25.611Z,11.80
2019-02-10T16:22:58.570Z,11.80
2019-02-10T16:25:31.391Z,11.90
2019-02-10T16:28:03.753Z,11.90
2019-02-10T16:30:36.292Z,12.00
2019-02-10T16:33:08.070Z,12.00
2019-02-10T16:35:40.631Z,12.10
2019-02-10T16:38:14.051Z,12.10
2019-02-10T16:40:46.872Z,12.10
2019-02-10T16:43:18.991Z,12.00
2019-02-10T16:45:52.631Z,12.00
2019-02-10T16:48:25.391Z,12.00
2019-02-10T16:50:57.550Z,11.90
2019-02-10T16:53:30.271Z,11.90
2019-02-10T16:56:03.391Z,11.80
2019-02-10T16:58:35.771Z,11.70
2019-02-10T17:01:08.072Z,11.60
2019-02-10T17:03:40.852Z,11.50
2019-02-10T17:06:13.651Z,11.20
2019-02-10T17:08:45.772Z,10.90
2019-02-10T17:11:19.352Z,10.70
2019-02-10T17:13:52.151Z,10.60
2019-02-10T17:16:23.990Z,10.60
2019-02-10T17:18:57.394Z,10.60
2019-02-10T17:21:30.211Z,10.50
2019-02-10T17:24:04.053Z,10.50
2019-02-10T17:26:36.791Z,10.30
2019-02-10T17:29:08.852Z,10.20
2019-02-10T17:31:41.772Z,10.00
2019-02-10T17:34:13.812Z,9.80
2019-02-10T17:36:46.194Z,9.60
2019-02-10T17:39:21.712Z,9.50
2019-02-10T17:41:53.891Z,9.20
2019-02-10T17:44:26.155Z,9.00
2019-02-10T17:46:58.995Z,8.90
2019-02-10T17:49:31.632Z,8.90
2019-02-10T17:52:04.012Z,8.60
2019-02-10T17:54:37.014Z,8.60
2019-02-10T17:57:09.311Z,8.70
2019-02-10T17:59:42.072Z,8.70
2019-02-10T18:02:15.022Z,8.80
2019-02-10T18:04:48.317Z,8.70
2019-02-10T18:07:20.628Z,8.70
2019-02-10T18:09:53.571Z,8.70
2019-02-10T18:12:25.796Z,8.70
2019-02-10T18:15:22.670Z,8.70
2019-02-10T18:18:12.651Z,8.60
2019-02-10T18:21:03.871Z,8.60
2019-02-10T18:23:54.431Z,8.50
2019-02-10T18:26:50.351Z,8.60
2019-02-10T18:29:40.810Z,8.60
2019-02-10T18:32:35.151Z,8.50
2019-02-10T18:35:21.034Z,8.50
2019-02-10T18:38:20.993Z,8.60
2019-02-10T18:41:18.411Z,8.70
2019-02-10T18:44:10.478Z,8.80
2019-02-10T18:47:10.171Z,8.80
2019-02-10T18:50:01.670Z,8.80
2019-02-10T18:52:58.352Z,8.80
2019-02-10T18:55:54.971Z,8.80
2019-02-10T18:58:40.071Z,8.80
2019-02-10T19:01:40.830Z,8.80
2019-02-10T19:04:32.352Z,8.90
2019-02-10T19:07:32.290Z,9.00
2019-02-10T19:10:15.871Z,9.00
2019-02-10T19:13:10.751Z,9.00
2019-02-10T19:16:14.550Z,8.90
2019-02-10T19:19:21.190Z,8.90
2019-02-10T19:22:14.751Z,8.90
2019-02-10T19:25:14.710Z,8.80
2019-02-10T19:28:04.171Z,8.80
2019-02-10T19:30:47.252Z,8.80
2019-02-10T19:33:56.711Z,8.80
2019-02-10T19:36:50.153Z,8.80
2019-02-10T19:39:50.494Z,8.80
2019-02-10T19:42:33.071Z,8.90
2019-02-10T19:45:22.810Z,8.90
2019-02-10T19:48:16.372Z,8.90
2019-02-10T19:51:16.832Z,8.80
2019-02-10T19:54:13.990Z,8.80
2019-02-10T19:57:03.492Z,8.80
2019-02-10T20:00:01.391Z,8.80
2019-02-10T20:02:47.531Z,8.80
2019-02-10T20:05:37.532Z,8.80
2019-02-10T20:08:32.412Z,8.80
2019-02-10T20:11:23.370Z,8.80
2019-02-10T20:14:13.631Z,8.80
2019-02-10T20:17:02.075Z,8.70
2019-02-10T20:19:43.112Z,8.70
2019-02-10T20:22:26.811Z,8.70
2019-02-10T20:25:25.371Z,8.70
2019-02-10T20:28:12.810Z,8.80
2019-02-10T20:30:57.131Z,8.80
2019-02-10T20:33:57.949Z,8.90
2019-02-10T20:36:48.631Z,9.00
2019-02-10T20:39:39.631Z,9.00
2019-02-10T20:42:33.471Z,9.00
2019-02-10T20:45:20.130Z,8.90
2019-02-10T20:48:09.631Z,8.90
2019-02-10T20:51:14.970Z,8.90
2019-02-10T20:54:17.751Z,8.90
2019-02-10T20:57:00.791Z,8.80
2019-02-10T20:59:40.291Z,8.80
2019-02-10T21:02:31.551Z,8.80
2019-02-10T21:05:21.031Z,8.80
2019-02-10T21:08:12.511Z,8.80
2019-02-10T21:11:06.131Z,8.80
2019-02-10T21:13:56.895Z,8.80
2019-02-10T21:16:40.751Z,8.80
2019-02-10T21:19:37.871Z,8.80
2019-02-10T21:22:28.650Z,8.80
2019-02-10T21:25:07.330Z,8.80
2019-02-10T21:28:04.252Z,8.80
2019-02-10T21:30:53.732Z,8.80
2019-02-10T21:33:47.050Z,8.80
2019-02-10T21:36:52.914Z,8.70
2019-02-10T21:39:42.610Z,8.70
2019-02-10T21:42:29.055Z,8.70
2019-02-10T21:45:18.050Z,8.50
2019-02-10T21:48:01.732Z,8.50
2019-02-10T21:50:34.651Z,8.40
2019-02-10T21:53:06.997Z,8.30
2019-02-10T21:55:39.550Z,8.30
2019-02-10T21:58:12.791Z,8.30
2019-02-10T22:00:46.010Z,8.30
2019-02-10T22:03:19.350Z,8.20
2019-02-10T22:05:52.932Z,8.20
2019-02-10T22:08:25.230Z,8.10
2019-02-10T22:10:57.831Z,8.10
2019-02-10T22:13:30.677Z,8.10
2019-02-10T22:16:03.111Z,8.00
2019-02-10T22:18:35.771Z,8.00
2019-02-10T22:21:08.412Z,7.90
2019-02-10T22:23:41.151Z,7.90
2019-02-10T22:26:14.070Z,7.90
2019-02-10T22:28:46.930Z,7.90
2019-02-10T22:31:19.470Z,7.90
2019-02-10T22:33:52.312Z,7.90
2019-02-10T22:36:25.332Z,7.90
2019-02-10T22:38:58.691Z,7.90
2019-02-10T22:41:32.451Z,7.90
2019-02-10T22:44:06.010Z,7.80
2019-02-10T22:46:39.571Z,7.90
2019-02-10T22:49:12.370Z,7.90
2019-02-10T22:51:45.251Z,8.00
2019-02-10T22:54:17.971Z,7.90
2019-02-10T22:56:51.192Z,7.90
2019-02-10T22:59:24.492Z,7.90
2019-02-10T23:01:57.171Z,7.90
2019-02-10T23:04:30.571Z,7.90
2019-02-10T23:07:02.472Z,7.90
2019-02-10T23:09:34.850Z,7.80
2019-02-10T23:12:07.651Z,7.80
2019-02-10T23:14:40.192Z,7.80
2019-02-10T23:17:12.891Z,7.70
2019-02-10T23:19:45.934Z,7.70
2019-02-10T23:22:19.210Z,7.70
2019-02-10T23:24:51.811Z,7.70
2019-02-10T23:27:24.571Z,7.70
2019-02-10T23:29:57.111Z,7.70
2019-02-10T23:32:30.052Z,7.60
2019-02-10T23:35:03.131Z,7.60
2019-02-10T23:37:35.471Z,7.50
2019-02-10T23:40:07.852Z,7.50
2019-02-10T23:42:40.853Z,7.50
2019-02-10T23:45:13.432Z,7.50
2019-02-10T23:47:46.211Z,7.50
2019-02-10T23:50:19.250Z,7.50
2019-02-10T23:52:52.390Z,7.50
2019-02-10T23:55:25.290Z,7.60
2019-02-10T23:57:57.332Z,7.70
